Farmington, Kentucky
Current Conditions -  °F | °C
As of 1:15 PM on Friday 21 Nov 2014 (Local Time) from KM25 Reporting Station
Broken Clouds Broken Clouds  
Wind Chill: 45°   Ceiling: 8000
Heat Index: 48°   Visibility: 10mi
Dew Point: 27°   Wind: 7mph
Humidity: 43%   Direction: 110°ESE
Pressure: 30.37"   Gusts: NA
Location:  36.67°N, 88.53°W
Report Text: KM25 211915Z AUTO 11006KT 10SM BKN080 BKN085 09/M03 A3037 RMK AO2
Loading
Personal Weather Stations






























Interactive Weather Map New forecast layout! Learn more

10-Day Weather Forecast

Advertisements
Track Severe Weather on mobile